Time;durP1;ratioP1;P1;durP2;ratioP2;P2;SDS_P1;SDS_P2;PMS_P1;PMS_P2;Temp;Humidity;BMP_temperature;BMP_pressure;BME280_temperature;BME280_humidity;BME280_pressure;Samples;Min_cycle;Max_cycle;Signal;HPM_P1;HPM_P2
2022/08/17 00:02:21;;;;;;;4.70;2.50;;;16.90;98.90;;;;;;5036195;28;20053;-75
2022/08/17 00:04:48;;;;;;;3.38;2.58;;;16.90;99.10;;;;;;5035016;28;20424;-76
2022/08/17 00:07:13;;;;;;;3.90;2.58;;;16.90;99.10;;;;;;5035984;28;20029;-76
2022/08/17 00:09:39;;;;;;;4.30;2.72;;;16.90;99.20;;;;;;5034760;28;20029;-76
2022/08/17 00:12:05;;;;;;;4.03;2.70;;;16.90;99.40;;;;;;5034110;28;20028;-76
2022/08/17 00:14:31;;;;;;;4.68;2.80;;;16.80;99.30;;;;;;5033218;28;20037;-75
2022/08/17 00:16:57;;;;;;;3.58;2.60;;;16.70;99.40;;;;;;5032940;28;20033;-75
2022/08/17 00:19:24;;;;;;;3.53;2.63;;;16.70;99.70;;;;;;5033454;28;20036;-75
2022/08/17 00:21:54;;;;;;;4.15;2.70;;;16.70;99.90;;;;;;5035565;28;20014;-76
2022/08/17 00:24:20;;;;;;;4.55;2.80;;;16.60;99.80;;;;;;5035693;28;20025;-76
2022/08/17 00:26:46;;;;;;;4.28;2.53;;;16.60;99.90;;;;;;5035849;28;20103;-76
2022/08/17 00:29:12;;;;;;;5.22;3.13;;;16.60;99.90;;;;;;5034547;28;20037;-76
2022/08/17 00:31:38;;;;;;;4.50;2.75;;;16.50;99.90;;;;;;5034231;28;20033;-76
2022/08/17 00:34:07;;;;;;;4.20;2.90;;;16.50;99.90;;;;;;5034276;28;20021;-76
2022/08/17 00:36:33;;;;;;;4.05;3.00;;;16.40;99.90;;;;;;5035928;28;20025;-76
2022/08/17 00:38:59;;;;;;;3.88;2.50;;;16.40;99.90;;;;;;5035593;28;20036;-75
2022/08/17 00:41:26;;;;;;;3.72;2.97;;;16.30;99.90;;;;;;5035433;28;20024;-75
2022/08/17 00:44:03;;;;;;;4.50;3.10;;;16.30;99.90;;;;;;5035295;28;20033;-76
2022/08/17 00:46:35;;;;;;;4.13;3.00;;;16.30;99.90;;;;;;5034935;28;20130;-76
2022/08/17 00:49:03;;;;;;;5.70;2.50;;;16.20;99.90;;;;;;5035557;28;20449;-75
2022/08/17 00:51:55;;;;;;;3.33;2.47;;;16.20;99.90;;;;;;5035235;28;20030;-75
2022/08/17 00:54:35;;;;;;;4.22;2.72;;;16.10;99.90;;;;;;5035790;28;20064;-75
2022/08/17 00:57:08;;;;;;;3.80;2.78;;;16.10;99.90;;;;;;5034644;28;20037;-75
2022/08/17 00:59:38;;;;;;;3.17;2.50;;;16.10;99.90;;;;;;5033798;28;20037;-75
2022/08/17 01:02:05;;;;;;;4.00;2.85;;;16.10;99.90;;;;;;5033645;28;20021;-75
2022/08/17 01:04:32;;;;;;;4.68;2.60;;;16.00;99.90;;;;;;5034908;28;20386;-76
2022/08/17 01:06:59;;;;;;;4.20;2.97;;;16.00;99.90;;;;;;5034797;28;20018;-76
2022/08/17 01:09:26;;;;;;;5.18;2.72;;;16.00;99.90;;;;;;5033492;28;20111;-75
2022/08/17 01:11:52;;;;;;;5.07;2.75;;;15.90;99.90;;;;;;5034620;28;20064;-75
2022/08/17 01:14:24;;;;;;;4.20;3.08;;;15.90;99.90;;;;;;5033764;28;20053;-76
2022/08/17 01:16:53;;;;;;;4.43;2.47;;;15.90;99.90;;;;;;5033586;28;20026;-75
2022/08/17 01:19:25;;;;;;;4.75;2.60;;;15.80;99.90;;;;;;5034856;28;20466;-75
2022/08/17 01:22:10;;;;;;;4.88;2.60;;;15.80;99.90;;;;;;5033420;28;20474;-75
2022/08/17 01:24:46;;;;;;;4.00;2.58;;;15.70;99.90;;;;;;5034529;28;20025;-75
2022/08/17 01:27:13;;;;;;;3.53;2.50;;;15.80;99.90;;;;;;5034699;28;20505;-74
2022/08/17 01:29:44;;;;;;;3.70;2.55;;;15.70;99.90;;;;;;5033169;28;20037;-75
2022/08/17 01:32:10;;;;;;;4.10;3.10;;;15.70;99.90;;;;;;5034316;28;20108;-75
2022/08/17 01:34:36;;;;;;;3.90;2.80;;;15.60;99.90;;;;;;5033318;28;20276;-75
2022/08/17 01:37:02;;;;;;;5.22;3.33;;;15.60;99.90;;;;;;5034275;28;20083;-75
2022/08/17 01:39:30;;;;;;;4.30;2.70;;;15.60;99.90;;;;;;5034173;28;20029;-75
2022/08/17 01:42:14;;;;;;;4.72;2.83;;;15.60;99.90;;;;;;5032856;28;20021;-75
2022/08/17 01:44:40;;;;;;;3.42;2.70;;;15.50;99.90;;;;;;5034425;28;20091;-75
2022/08/17 01:47:05;;;;;;;4.10;2.85;;;15.50;99.90;;;;;;5032812;28;20500;-75
2022/08/17 01:49:31;;;;;;;4.72;2.53;;;15.40;99.90;;;;;;5034068;28;20034;-75
2022/08/17 01:52:02;;;;;;;6.25;2.75;;;15.50;99.90;;;;;;5032661;28;20540;-75
2022/08/17 01:54:28;;;;;;;3.63;3.03;;;15.40;99.90;;;;;;5034304;28;20477;-75
2022/08/17 01:56:54;;;;;;;4.75;3.30;;;15.40;99.90;;;;;;5032477;28;20033;-75
2022/08/17 01:59:20;;;;;;;4.63;3.22;;;15.40;99.90;;;;;;5032513;28;20036;-75
2022/08/17 02:01:46;;;;;;;6.03;2.70;;;15.40;99.90;;;;;;5032522;28;20033;-75
2022/08/17 02:04:13;;;;;;;4.75;2.47;;;15.40;99.90;;;;;;5032555;28;20025;-75
2022/08/17 02:06:42;;;;;;;4.22;2.90;;;15.40;99.90;;;;;;5033784;28;20079;-75
2022/08/17 02:09:09;;;;;;;4.20;2.83;;;15.40;99.90;;;;;;5033717;28;20018;-75
2022/08/17 02:11:39;;;;;;;4.25;2.75;;;15.30;99.90;;;;;;5033575;28;20091;-75
2022/08/17 02:14:09;;;;;;;6.57;3.38;;;15.30;99.90;;;;;;5033659;28;20026;-75
2022/08/17 02:16:39;;;;;;;4.70;3.53;;;15.30;99.90;;;;;;5033954;28;20037;-76
2022/08/17 02:19:07;;;;;;;4.20;3.20;;;15.30;99.90;;;;;;5032223;28;20119;-74
2022/08/17 02:21:34;;;;;;;4.15;3.22;;;15.30;99.90;;;;;;5032442;28;20025;-75
2022/08/17 02:24:00;;;;;;;4.07;2.72;;;15.30;99.90;;;;;;5032318;28;20025;-75
2022/08/17 02:26:26;;;;;;;4.32;2.90;;;15.20;99.90;;;;;;5032415;28;20095;-75
2022/08/17 02:28:52;;;;;;;5.20;2.90;;;15.10;99.90;;;;;;5033404;28;20060;-75
2022/08/17 02:31:18;;;;;;;4.32;2.80;;;15.00;99.90;;;;;;5032166;28;20033;-74
2022/08/17 02:33:43;;;;;;;4.15;2.90;;;15.00;99.90;;;;;;5033426;28;20022;-74
2022/08/17 02:36:11;;;;;;;4.63;3.38;;;15.00;99.90;;;;;;5032336;28;20493;-74
2022/08/17 02:38:37;;;;;;;5.18;3.50;;;14.90;99.90;;;;;;5031978;28;20026;-74
2022/08/17 02:41:03;;;;;;;4.72;3.08;;;14.90;99.90;;;;;;5032188;28;20481;-75
2022/08/17 02:43:29;;;;;;;5.57;3.10;;;14.90;99.90;;;;;;5032097;28;20051;-75
2022/08/17 02:45:55;;;;;;;5.22;3.05;;;14.80;99.90;;;;;;5032081;28;20494;-75
2022/08/17 02:48:21;;;;;;;8.57;2.95;;;14.70;99.90;;;;;;5032055;28;20030;-75
2022/08/17 02:50:48;;;;;;;3.88;2.95;;;14.70;99.90;;;;;;5032190;28;20038;-74
2022/08/17 02:53:14;;;;;;;4.68;2.58;;;14.70;99.90;;;;;;5033607;28;20047;-75
2022/08/17 02:55:41;;;;;;;3.90;3.00;;;14.60;99.90;;;;;;5031856;28;20084;-74
2022/08/17 02:58:09;;;;;;;4.65;3.00;;;14.60;99.90;;;;;;5033683;28;20036;-74
2022/08/17 03:00:39;;;;;;;4.47;3.05;;;14.50;99.90;;;;;;5032643;28;20500;-75
2022/08/17 03:03:06;;;;;;;5.30;3.20;;;14.50;99.90;;;;;;5033161;28;20049;-75
2022/08/17 03:05:34;;;;;;;6.03;3.08;;;14.50;99.90;;;;;;5032192;28;20087;-75
2022/08/17 03:08:00;;;;;;;6.82;3.42;;;14.50;99.90;;;;;;5033135;28;20057;-74
2022/08/17 03:10:25;;;;;;;6.43;3.97;;;14.50;99.90;;;;;;5031874;28;20061;-74
2022/08/17 03:12:52;;;;;;;8.65;4.70;;;14.50;99.90;;;;;;5031903;28;20518;-74
2022/08/17 03:15:21;;;;;;;10.10;5.65;;;14.50;99.90;;;;;;5026650;28;20548;-75
2022/08/17 03:17:47;;;;;;;9.00;5.75;;;14.50;99.90;;;;;;5031997;28;20038;-75
2022/08/17 03:20:15;;;;;;;7.95;4.75;;;14.50;99.90;;;;;;5029765;28;20037;-74
2022/08/17 03:22:47;;;;;;;5.65;4.07;;;14.50;99.90;;;;;;5030153;28;20029;-75
2022/08/17 03:25:15;;;;;;;4.95;3.35;;;14.40;99.90;;;;;;5034756;28;20021;-75
2022/08/17 03:27:41;;;;;;;4.82;3.60;;;14.40;99.90;;;;;;5035494;28;20033;-75
2022/08/17 03:30:09;;;;;;;4.47;3.28;;;14.40;99.90;;;;;;5035393;28;20091;-75
2022/08/17 03:32:47;;;;;;;4.97;2.80;;;14.40;99.90;;;;;;5034891;28;20409;-75
2022/08/17 03:35:16;;;;;;;4.50;3.20;;;14.40;99.90;;;;;;5035191;28;20500;-75
2022/08/17 03:37:42;;;;;;;4.47;3.42;;;14.40;99.90;;;;;;5036407;28;20083;-75
2022/08/17 03:40:09;;;;;;;5.28;3.15;;;14.40;99.90;;;;;;5033919;28;20508;-75
2022/08/17 03:42:39;;;;;;;5.30;3.15;;;14.30;99.90;;;;;;5034140;28;20072;-75
2022/08/17 03:45:09;;;;;;;3.50;2.75;;;14.30;99.90;;;;;;5034545;28;20049;-75
2022/08/17 03:56:41;;;;;;;7.90;3.38;;;14.20;99.90;;;;;;5035092;28;20032;-74
2022/08/17 03:58:38;;;;;;;4.57;3.25;;;14.10;99.90;;;;;;5036305;28;20465;-74
2022/08/17 04:01:05;;;;;;;7.60;3.42;;;14.10;99.90;;;;;;5034655;28;20022;-74
2022/08/17 04:03:31;;;;;;;4.13;3.20;;;14.00;99.90;;;;;;5035874;28;20025;-74
2022/08/17 04:05:56;;;;;;;7.80;3.67;;;13.80;99.90;;;;;;5034852;28;20048;-76
2022/08/17 04:08:22;;;;;;;4.22;3.33;;;13.70;99.90;;;;;;5034685;28;20115;-75
2022/08/17 04:10:48;;;;;;;5.13;3.28;;;13.70;99.90;;;;;;5034700;28;20108;-76
2022/08/17 04:13:14;;;;;;;4.97;3.53;;;13.70;99.90;;;;;;5034627;28;20034;-76
2022/08/17 04:15:40;;;;;;;5.50;3.05;;;13.70;99.90;;;;;;5036140;28;20433;-75
2022/08/17 04:18:06;;;;;;;3.28;2.83;;;13.70;99.90;;;;;;5036194;28;20038;-75
2022/08/17 04:20:32;;;;;;;4.15;2.90;;;13.70;99.90;;;;;;5035705;28;20397;-76
2022/08/17 04:23:01;;;;;;;4.25;2.92;;;13.70;99.90;;;;;;5035741;28;20029;-76
2022/08/17 04:25:29;;;;;;;6.13;3.00;;;13.70;99.90;;;;;;5033947;28;20048;-76
2022/08/17 04:27:55;;;;;;;4.47;3.17;;;13.70;99.90;;;;;;5034646;28;20087;-76
2022/08/17 04:30:22;;;;;;;4.82;3.50;;;13.70;99.90;;;;;;5034375;28;20033;-76
2022/08/17 04:33:10;;;;;;;7.80;3.35;;;13.70;99.90;;;;;;5034218;28;20036;-76
2022/08/17 04:35:48;;;;;;;5.65;3.60;;;13.70;99.90;;;;;;5034159;28;20492;-76
2022/08/17 04:38:26;;;;;;;5.68;3.30;;;13.70;99.90;;;;;;5035646;28;20029;-76
2022/08/17 04:43:39;;;;;;;7.25;4.35;;;13.80;99.90;;;;;;5035644;28;20060;-75
2022/08/17 04:46:16;;;;;;;7.07;4.50;;;13.80;99.90;;;;;;5035297;28;20047;-76
2022/08/17 04:48:45;;;;;;;8.32;5.40;;;13.80;99.90;;;;;;5034028;28;20029;-76
2022/08/17 04:51:20;;;;;;;8.63;5.13;;;13.70;99.90;;;;;;5033858;28;20029;-75
2022/08/17 04:53:48;;;;;;;5.93;4.03;;;13.70;99.90;;;;;;5033824;28;20033;-76
2022/08/17 04:56:15;;;;;;;5.68;3.92;;;13.70;99.90;;;;;;5033678;28;20088;-76
2022/08/17 04:58:46;;;;;;;5.90;3.90;;;13.80;99.90;;;;;;5033748;28;20433;-75
2022/08/17 05:01:13;;;;;;;4.93;3.55;;;13.80;99.90;;;;;;5035324;28;20434;-76
2022/08/17 05:03:40;;;;;;;4.65;3.80;;;13.90;99.90;;;;;;5033761;28;20029;-76
2022/08/17 05:06:06;;;;;;;5.05;3.10;;;13.80;99.90;;;;;;5033672;28;20026;-75
2022/08/17 05:08:31;;;;;;;4.85;3.60;;;13.90;99.90;;;;;;5035450;28;20382;-76
2022/08/17 05:10:57;;;;;;;5.05;3.28;;;13.80;99.90;;;;;;5034751;28;20032;-76
2022/08/17 05:13:26;;;;;;;7.35;3.45;;;13.90;99.90;;;;;;5033776;28;20389;-76
2022/08/17 05:15:55;;;;;;;5.13;3.70;;;13.90;99.90;;;;;;5033703;28;20029;-76
2022/08/17 05:18:21;;;;;;;5.05;3.25;;;13.90;99.90;;;;;;5033293;28;20473;-76
2022/08/17 05:20:47;;;;;;;5.18;3.95;;;13.90;99.90;;;;;;5034578;28;20079;-76
2022/08/17 05:23:15;;;;;;;7.07;4.38;;;14.00;99.90;;;;;;5033588;28;20492;-76
2022/08/17 05:25:43;;;;;;;6.03;3.85;;;13.90;99.90;;;;;;5034554;28;20049;-76
2022/08/17 05:28:10;;;;;;;6.82;3.60;;;13.90;99.90;;;;;;5033232;28;20057;-76
2022/08/17 05:30:38;;;;;;;4.85;3.90;;;14.00;99.90;;;;;;5034618;28;20500;-75
2022/08/17 05:33:13;;;;;;;6.00;4.07;;;14.00;99.90;;;;;;5033146;28;20025;-76
2022/08/17 05:35:43;;;;;;;6.45;3.55;;;14.00;99.90;;;;;;5033376;28;20109;-76
2022/08/17 05:38:10;;;;;;;4.95;3.72;;;14.00;99.90;;;;;;5034240;28;20109;-76
2022/08/17 05:40:37;;;;;;;5.43;3.85;;;14.10;99.90;;;;;;5034196;28;20405;-76
2022/08/17 05:43:12;;;;;;;5.53;3.83;;;14.10;99.90;;;;;;5032631;28;20035;-76
2022/08/17 05:45:56;;;;;;;5.47;3.50;;;14.20;99.90;;;;;;5033229;28;20030;-76
2022/08/17 05:48:23;;;;;;;5.60;3.95;;;14.30;99.90;;;;;;5032906;28;20018;-75
2022/08/17 05:51:18;;;;;;;6.22;4.45;;;14.30;99.90;;;;;;5034094;28;20034;-74
2022/08/17 05:54:08;;;;;;;4.93;3.60;;;14.40;99.90;;;;;;5032874;28;20056;-76
2022/08/17 05:57:06;;;;;;;4.50;3.35;;;14.40;99.90;;;;;;5032603;28;20030;-76
2022/08/17 05:59:35;;;;;;;5.50;4.07;;;14.50;99.90;;;;;;5025223;28;20395;-76
2022/08/17 06:02:25;;;;;;;7.20;5.03;;;14.60;99.90;;;;;;5032568;28;20029;-76
2022/08/17 06:04:53;;;;;;;6.00;4.53;;;14.70;99.90;;;;;;5032668;28;20021;-76
2022/08/17 06:07:35;;;;;;;6.68;4.55;;;14.80;99.90;;;;;;5032849;28;20029;-75
2022/08/17 06:10:04;;;;;;;8.25;4.75;;;14.80;99.90;;;;;;5032734;28;20051;-77
2022/08/17 06:13:03;;;;;;;8.13;5.22;;;14.90;99.90;;;;;;5033688;28;20030;-76
2022/08/17 06:15:32;;;;;;;9.70;5.20;;;15.00;99.90;;;;;;5032925;28;20535;-76
2022/08/17 06:18:04;;;;;;;8.15;4.82;;;15.10;99.90;;;;;;5033597;28;20059;-75
2022/08/17 06:20:40;;;;;;;7.63;5.15;;;15.10;99.90;;;;;;5033859;28;20029;-75
2022/08/17 06:23:11;;;;;;;8.00;5.70;;;15.20;99.90;;;;;;5032594;28;20025;-75
2022/08/17 06:25:48;;;;;;;7.85;5.35;;;15.30;99.90;;;;;;5032366;28;20017;-76
2022/08/17 06:28:26;;;;;;;7.22;4.75;;;15.40;99.90;;;;;;5033803;28;20021;-76
2022/08/17 06:31:01;;;;;;;5.75;5.00;;;15.50;99.90;;;;;;5033614;28;20053;-76
2022/08/17 06:33:38;;;;;;;7.25;5.25;;;15.50;99.90;;;;;;5032454;28;20032;-76
2022/08/17 06:36:29;;;;;;;8.02;4.63;;;15.60;99.90;;;;;;5033730;28;20033;-76
2022/08/17 06:38:57;;;;;;;6.20;4.30;;;15.70;99.90;;;;;;5032084;28;20030;-75
2022/08/17 06:41:36;;;;;;;5.78;4.50;;;15.90;99.90;;;;;;5031995;28;20021;-76
2022/08/17 06:44:02;;;;;;;6.05;4.30;;;15.90;99.90;;;;;;5032092;28;20677;-76
2022/08/17 06:46:36;;;;;;;9.05;4.72;;;16.10;99.90;;;;;;5032029;28;20022;-76
2022/08/17 06:49:27;;;;;;;7.75;5.03;;;16.20;99.90;;;;;;5032034;28;20097;-76
2022/08/17 06:52:00;;;;;;;;;;;16.30;99.90;;;;;;5032401;28;20504;-76
2022/08/17 06:54:38;;;;;;;6.60;4.43;;;16.40;99.90;;;;;;5051313;28;20040;-76
2022/08/17 06:57:13;;;;;;;5.85;4.25;;;16.50;99.90;;;;;;5037382;28;20041;-76
2022/08/17 06:59:49;;;;;;;6.50;4.05;;;16.60;99.90;;;;;;5037493;28;20425;-75
2022/08/17 07:02:30;;;;;;;7.32;4.60;;;16.80;99.90;;;;;;5037478;28;20485;-76
2022/08/17 07:05:00;;;;;;;5.65;4.28;;;16.90;99.90;;;;;;5037726;28;20049;-78
2022/08/17 07:10:11;;;;;;;5.43;4.47;;;17.10;99.90;;;;;;5037463;28;20032;-76
2022/08/17 07:12:41;;;;;;;6.65;4.38;;;17.20;99.90;;;;;;5035427;28;20029;-76
2022/08/17 07:15:12;;;;;;;6.78;4.28;;;17.30;99.90;;;;;;5037357;28;20033;-76
2022/08/17 07:17:39;;;;;;;7.05;4.40;;;17.40;99.90;;;;;;5035766;28;20053;-76
2022/08/17 07:20:16;;;;;;;6.40;4.35;;;17.60;99.90;;;;;;5036858;28;20031;-76
2022/08/17 07:22:52;;;;;;;8.60;4.68;;;17.60;99.90;;;;;;5037194;28;20497;-77
2022/08/17 07:25:18;;;;;;;5.72;4.43;;;17.80;99.90;;;;;;5036836;28;20023;-77
2022/08/17 07:27:51;;;;;;;8.38;5.10;;;17.90;99.90;;;;;;5035455;28;20112;-77
2022/08/17 07:30:24;;;;;;;6.65;4.55;;;18.10;99.90;;;;;;5036925;28;20028;-77
2022/08/17 07:32:59;;;;;;;5.82;4.40;;;18.30;99.90;;;;;;5036717;28;20087;-76
2022/08/17 07:35:28;;;;;;;7.38;4.65;;;18.40;99.90;;;;;;5037016;28;20493;-76
2022/08/17 07:38:19;;;;;;;7.38;4.10;;;18.60;99.90;;;;;;5035288;28;20026;-77
2022/08/17 07:40:56;;;;;;;5.45;4.43;;;18.70;99.90;;;;;;5035248;28;20036;-76
2022/08/17 07:43:40;;;;;;;5.65;4.00;;;18.90;99.90;;;;;;5035336;28;20029;-77
2022/08/17 07:49:33;;;;;;;4.70;3.70;;;19.20;99.90;;;;;;5036544;28;20028;-76
2022/08/17 07:52:03;;;;;;;5.03;3.53;;;19.30;99.90;;;;;;5036103;28;20025;-77
2022/08/17 07:54:38;;;;;;;6.85;3.95;;;19.50;99.90;;;;;;5035001;28;20036;-76
2022/08/17 07:57:13;;;;;;;4.20;3.35;;;19.70;99.60;;;;;;5034705;28;20560;-77
2022/08/17 07:59:58;;;;;;;5.30;3.38;;;19.80;99.20;;;;;;5035739;28;20486;-77
2022/08/17 08:02:39;;;;;;;5.05;3.75;;;20.00;98.40;;;;;;5035970;28;20096;-77
2022/08/17 08:05:11;;;;;;;5.60;3.73;;;20.20;98.10;;;;;;5034605;28;20485;-77
2022/08/17 08:07:48;;;;;;;4.90;4.30;;;20.40;97.90;;;;;;5033765;28;20025;-77
2022/08/17 08:10:31;;;;;;;6.65;5.80;;;20.50;97.50;;;;;;5034551;28;20036;-77
2022/08/17 08:13:20;;;;;;;6.90;5.68;;;20.70;97.50;;;;;;5033884;28;20099;-77
2022/08/17 08:16:07;;;;;;;8.40;5.68;;;20.90;96.10;;;;;;5031861;28;20124;-77
2022/08/17 08:18:35;;;;;;;6.05;4.90;;;21.10;96.20;;;;;;5030921;28;20087;-77
2022/08/17 08:21:19;;;;;;;5.65;4.43;;;21.30;95.90;;;;;;5035127;28;20021;-77
2022/08/17 08:23:45;;;;;;;7.20;5.10;;;21.50;95.70;;;;;;5034179;28;20144;-77
2022/08/17 08:26:35;;;;;;;7.57;5.00;;;21.60;95.50;;;;;;5035467;28;20025;-77
2022/08/17 08:29:42;;;;;;;7.22;4.63;;;21.80;95.00;;;;;;5049195;28;20489;-77
2022/08/17 08:32:55;;;;;;;4.50;4.10;;;22.00;94.80;;;;;;5034950;28;20508;-77
2022/08/17 08:35:39;;;;;;;5.28;4.32;;;22.20;94.40;;;;;;5023066;28;20391;-77
2022/08/17 08:38:25;;;;;;;5.00;4.28;;;22.40;94.00;;;;;;5035215;28;20531;-77
2022/08/17 08:41:13;;;;;;;7.47;4.30;;;22.50;93.50;;;;;;5034551;28;20088;-77
2022/08/17 08:43:45;;;;;;;5.00;3.60;;;22.60;92.70;;;;;;5032700;28;20025;-77
2022/08/17 08:46:22;;;;;;;6.03;4.28;;;22.70;92.60;;;;;;5034016;28;20096;-77
2022/08/17 08:49:19;;;;;;;6.68;4.60;;;22.80;93.00;;;;;;5032705;28;20053;-77
2022/08/17 08:51:59;;;;;;;6.90;4.63;;;23.00;92.40;;;;;;5031589;28;20033;-77
2022/08/17 08:54:41;;;;;;;7.38;4.80;;;23.10;93.10;;;;;;5028193;28;20029;-77
2022/08/17 08:57:42;;;;;;;5.13;3.78;;;23.30;93.00;;;;;;5030243;28;20037;-73
2022/08/17 09:00:19;;;;;;;6.60;4.13;;;23.50;92.00;;;;;;5006244;28;20084;-77
2022/08/17 09:03:09;;;;;;;4.78;4.28;;;23.60;91.40;;;;;;5032418;28;20040;-77
2022/08/17 09:06:10;;;;;;;7.75;3.72;;;23.70;92.10;;;;;;5033355;28;20060;-77
2022/08/17 09:08:52;;;;;;;4.72;3.85;;;23.90;91.80;;;;;;5033765;28;20087;-77
2022/08/17 09:11:45;;;;;;;5.57;3.63;;;24.00;91.70;;;;;;5032828;28;20049;-77
2022/08/17 09:14:17;;;;;;;;;;;24.10;90.60;;;;;;5035547;28;20033;-77
2022/08/17 09:16:45;;;;;;;;;;;24.20;90.50;;;;;;5030940;28;19919;-77
2022/08/17 09:19:10;;;;;;;;;;;24.30;90.60;;;;;;5037660;28;19952;-77
2022/08/17 09:21:40;;;;;;;;;;;24.50;90.10;;;;;;5037019;28;19990;-78
2022/08/17 09:24:27;;;;;;;;;;;24.60;88.50;;;;;;5032999;28;19912;-77
2022/08/17 09:26:58;;;;;;;;;;;24.80;88.20;;;;;;5033832;28;19908;-77
2022/08/17 09:29:25;;;;;;;;;;;25.00;88.90;;;;;;5048360;28;20011;-77
2022/08/17 09:31:56;;;;;;;;;;;25.20;88.40;;;;;;5033577;28;20376;-77
2022/08/17 09:34:37;;;;;;;;;;;25.40;86.20;;;;;;5033178;28;19909;-77
2022/08/17 09:37:06;;;;;;;;;;;25.50;84.00;;;;;;5022082;28;19909;-77
2022/08/17 09:39:41;;;;;;;;;;;25.60;81.10;;;;;;5033760;28;20021;-77
2022/08/17 09:42:28;;;;;;;;;;;25.80;78.10;;;;;;5031248;28;19909;-77
2022/08/17 09:45:14;;;;;;;;;;;25.90;79.00;;;;;;5039494;28;20266;-77
2022/08/17 09:47:44;;;;;;;;;;;26.00;79.80;;;;;;5037461;28;19932;-77
2022/08/17 09:50:14;;;;;;;;;;;26.20;77.80;;;;;;5028153;28;19912;-77
2022/08/17 09:52:40;;;;;;;;;;;26.20;76.10;;;;;;5049767;28;19963;-77
2022/08/17 09:55:06;;;;;;;;;;;26.30;73.50;;;;;;5033430;28;20269;-77
2022/08/17 09:57:49;;;;;;;;;;;26.30;75.50;;;;;;5043196;28;19913;-77
2022/08/17 10:00:26;;;;;;;;;;;26.40;76.80;;;;;;5051818;28;20361;-77
2022/08/17 10:02:52;;;;;;;;;;;26.50;75.70;;;;;;5044481;28;19915;-77
2022/08/17 10:05:18;;;;;;;;;;;26.50;74.20;;;;;;5032524;28;19916;-77
2022/08/17 10:07:56;;;;;;;;;;;26.60;74.40;;;;;;5036683;28;19913;-78
2022/08/17 10:10:28;;;;;;;;;;;26.60;73.60;;;;;;5054426;28;20463;-78
2022/08/17 10:13:00;;;;;;;;;;;26.70;76.50;;;;;;5053002;28;19955;-78
2022/08/17 10:15:32;;;;;;;;;;;26.80;71.50;;;;;;5031327;28;19912;-78
2022/08/17 10:18:16;;;;;;;;;;;26.90;77.40;;;;;;5030323;28;19917;-78
2022/08/17 10:26:11;;;;;;;;;;;26.90;73.40;;;;;;5030647;28;19955;-77
2022/08/17 10:26:30;;;;;;;;;;;27.20;74.30;;;;;;5015411;28;19912;-77
2022/08/17 10:28:59;;;;;;;;;;;27.30;75.30;;;;;;5029285;28;20044;-77
2022/08/17 10:31:30;;;;;;;;;;;27.30;74.40;;;;;;5015118;28;19912;-75
2022/08/17 10:33:59;;;;;;;;;;;27.50;71.30;;;;;;5013482;28;20277;-77
2022/08/17 10:36:36;;;;;;;;;;;27.60;72.40;;;;;;5030478;28;19905;-77
2022/08/17 10:39:18;;;;;;;;;;;27.70;71.70;;;;;;5014923;28;19917;-77
2022/08/17 10:41:49;;;;;;;;;;;27.80;72.90;;;;;;5016554;28;19912;-78
2022/08/17 10:44:20;;;;;;;;;;;28.00;70.50;;;;;;5015387;28;19952;-77
2022/08/17 10:46:45;;;;;;;;;;;28.10;69.70;;;;;;5029576;28;19905;-77
2022/08/17 10:49:17;;;;;;;;;;;28.10;69.80;;;;;;5014339;28;19911;-78
2022/08/17 10:51:51;;;;;;;;;;;28.20;69.00;;;;;;5029217;28;19968;-77
2022/08/17 10:54:23;;;;;;;;;;;28.40;71.80;;;;;;5014569;28;19913;-77
2022/08/17 10:56:51;;;;;;;;;;;28.60;71.40;;;;;;5030216;28;19913;-77
2022/08/17 10:59:38;;;;;;;;;;;28.70;69.80;;;;;;5014329;28;19913;-77
2022/08/17 11:02:03;;;;;;;;;;;28.80;68.70;;;;;;5036368;28;19912;-77
2022/08/17 11:04:28;;;;;;;;;;;29.00;69.00;;;;;;5052345;28;19991;-77
2022/08/17 11:07:06;;;;;;;;;;;29.20;67.90;;;;;;5053918;28;19905;-77
2022/08/17 11:09:50;;;;;;;;;;;29.30;67.50;;;;;;5052808;28;19912;-77
2022/08/17 11:12:16;;;;;;;;;;;29.50;59.60;;;;;;5068957;28;19904;-77
2022/08/17 11:14:46;;;;;;;;;;;29.60;58.70;;;;;;5043779;28;19975;-77
2022/08/17 11:17:22;;;;;;;;;;;29.70;61.40;;;;;;5033075;28;19962;-76
2022/08/17 11:20:11;;;;;;;;;;;29.80;61.00;;;;;;5033687;28;19909;-77
2022/08/17 11:22:42;;;;;;;;;;;29.90;55.50;;;;;;5019352;28;20254;-77
2022/08/17 11:25:13;;;;;;;;;;;29.90;55.50;;;;;;5032464;28;19958;-73
2022/08/17 11:27:39;;;;;;;;;;;29.90;56.40;;;;;;5033384;28;19905;-77
2022/08/17 11:30:07;;;;;;;;;;;30.00;57.70;;;;;;5032354;28;20000;-76
2022/08/17 11:32:32;;;;;;;;;;;30.10;55.00;;;;;;5033215;28;19916;-77
2022/08/17 11:35:28;;;;;;;;;;;30.00;54.60;;;;;;5033498;28;19905;-78
2022/08/17 11:38:01;;;;;;;;;;;30.10;57.80;;;;;;5032422;28;19908;-77
2022/08/17 11:40:46;;;;;;;;;;;30.20;55.10;;;;;;5036232;28;19908;-77
2022/08/17 11:43:30;;;;;;;;;;;30.30;53.60;;;;;;5035647;28;19912;-78
2022/08/17 11:46:18;;;;;;;;;;;30.40;54.30;;;;;;5036114;28;19995;-77
2022/08/17 11:51:55;;;;;;;;;;;30.30;52.80;;;;;;5035733;28;20376;-77
2022/08/17 11:54:29;;;;;;;;;;;30.30;53.00;;;;;;5021977;28;20008;-77
2022/08/17 11:56:59;;;;;;;;;;;30.50;55.00;;;;;;5034669;28;19913;-77
2022/08/17 12:00:07;;;;;;;;;;;30.60;52.60;;;;;;5051335;28;20277;-77
2022/08/17 12:02:33;;;;;;;;;;;30.70;51.90;;;;;;5014975;28;19915;-77
2022/08/17 12:05:02;;;;;;;;;;;30.70;52.30;;;;;;5045981;28;19972;-77
2022/08/17 12:07:31;;;;;;;;;;;30.80;53.20;;;;;;5017161;28;19964;-77
2022/08/17 12:09:58;;;;;;;;;;;30.80;52.50;;;;;;5030667;28;19908;-76
2022/08/17 12:12:28;;;;;;;;;;;30.70;53.90;;;;;;5035149;28;19923;-77
2022/08/17 12:14:58;;;;;;;;;;;30.70;53.80;;;;;;5036464;28;19909;-77
2022/08/17 12:17:28;;;;;;;;;;;30.60;54.50;;;;;;5028813;28;19992;-75
2022/08/17 12:19:54;;;;;;;;;;;30.60;53.90;;;;;;5036662;28;19913;-77
2022/08/17 12:22:39;;;;;;;;;;;30.60;52.90;;;;;;5034115;28;19912;-76
2022/08/17 12:25:14;;;;;;;;;;;30.40;53.70;;;;;;5034601;28;19909;-77
2022/08/17 12:27:43;;;;;;;;;;;30.40;54.70;;;;;;5029535;28;19910;-77
2022/08/17 12:30:10;;;;;;;;;;;30.40;52.90;;;;;;5030484;28;19909;-79
2022/08/17 12:32:39;;;;;;;;;;;30.50;54.20;;;;;;5015200;28;19912;-77
2022/08/17 12:35:16;;;;;;;;;;;30.50;53.00;;;;;;5015038;28;19912;-72
2022/08/17 12:37:45;;;;;;;;;;;30.60;52.40;;;;;;5016494;28;19910;-74
2022/08/17 12:40:21;;;;;;;;;;;30.70;53.80;;;;;;5026788;28;19958;-77
2022/08/17 12:42:57;;;;;;;;;;;30.80;54.10;;;;;;5035106;28;20377;-77
2022/08/17 12:45:24;;;;;;;;;;;31.00;52.70;;;;;;5034800;28;19955;-77
2022/08/17 12:47:58;;;;;;;;;;;31.10;54.00;;;;;;5035450;28;19909;-77
2022/08/17 12:50:24;;;;;;;;;;;31.20;51.40;;;;;;5035539;28;19905;-77
2022/08/17 12:52:50;;;;;;;;;;;31.10;50.80;;;;;;5033440;28;19992;-77
2022/08/17 12:55:21;;;;;;;;;;;31.00;52.60;;;;;;5034552;28;19909;-77
2022/08/17 12:57:52;;;;;;;;;;;30.90;53.00;;;;;;5035245;28;19919;-77
2022/08/17 13:00:29;;;;;;;;;;;30.90;53.70;;;;;;5035107;28;19913;-77
2022/08/17 13:03:04;;;;;;;;;;;31.00;53.50;;;;;;5035600;28;20400;-75
2022/08/17 13:05:52;;;;;;;;;;;31.10;51.50;;;;;;5023491;28;19909;-77
2022/08/17 13:08:22;;;;;;;;;;;31.10;50.90;;;;;;5034181;28;19912;-77
2022/08/17 13:11:08;;;;;;;;;;;31.10;51.90;;;;;;5032779;28;20014;-77
2022/08/17 13:13:35;;;;;;;;;;;31.10;52.80;;;;;;5049947;28;20266;-76
2022/08/17 13:16:03;;;;;;;;;;;31.10;51.80;;;;;;5030360;28;19909;-76
2022/08/17 13:18:37;;;;;;;;;;;31.10;52.80;;;;;;5049419;28;20010;-77
2022/08/17 13:21:04;;;;;;;;;;;31.20;52.60;;;;;;5045716;28;20426;-77
2022/08/17 13:23:30;;;;;;;;;;;31.30;51.20;;;;;;5033903;28;20304;-73
2022/08/17 13:26:00;;;;;;;;;;;31.40;51.40;;;;;;5035560;28;19909;-76
2022/08/17 13:28:26;;;;;;;;;;;31.50;52.60;;;;;;5040788;28;19909;-77
2022/08/17 13:31:12;;;;;;;;;;;31.50;51.70;;;;;;5034588;28;19916;-76
2022/08/17 13:33:37;;;;;;;;;;;31.70;51.20;;;;;;5043810;28;21728;-76
2022/08/17 13:36:04;;;;;;;;;;;31.80;49.40;;;;;;5031929;28;19912;-76
2022/08/17 13:38:56;;;;;;;;;;;31.90;51.90;;;;;;5034770;28;19905;-76
2022/08/17 13:41:29;;;;;;;;;;;32.10;51.80;;;;;;5028760;28;19959;-76
2022/08/17 13:43:55;;;;;;;;;;;32.20;47.40;;;;;;5049139;28;19905;-76
2022/08/17 13:46:29;;;;;;;;;;;32.20;48.10;;;;;;5032209;28;19912;-76
2022/08/17 13:49:05;;;;;;;;;;;32.10;49.60;;;;;;5034873;28;20345;-76
2022/08/17 13:51:49;;;;;;;;;;;31.90;48.70;;;;;;5033243;28;19905;-76
2022/08/17 13:54:23;;;;;;;;;;;31.80;50.10;;;;;;5034515;28;20353;-75
2022/08/17 13:56:54;;;;;;;;;;;31.80;51.30;;;;;;5051132;28;20415;-72
2022/08/17 13:59:40;;;;;;;;;;;31.70;48.80;;;;;;5034278;28;19960;-76
2022/08/17 14:02:07;;;;;;;;;;;31.70;49.50;;;;;;5033755;28;19959;-74
2022/08/17 14:04:33;;;;;;;;;;;31.70;50.50;;;;;;5057289;28;19995;-75
2022/08/17 14:07:21;;;;;;;;;;;31.70;48.50;;;;;;5043565;28;19948;-72
2022/08/17 14:09:50;;;;;;;;;;;31.80;50.00;;;;;;5034218;28;20544;-74
2022/08/17 14:12:18;;;;;;;;;;;31.80;49.00;;;;;;5032902;28;19905;-75